sensor_id;sensor_type;location;lat;lon;timestamp;temperature;humidity
46416;DHT22;32620;51.704;7.822;2023-10-19T00:00:14;9.60;99.90
46416;DHT22;32620;51.704;7.822;2023-10-19T00:02:49;9.60;99.90
46416;DHT22;32620;51.704;7.822;2023-10-19T00:05:17;9.60;99.90
46416;DHT22;32620;51.704;7.822;2023-10-19T00:07:42;9.60;99.90
46416;DHT22;32620;51.704;7.822;2023-10-19T00:10:09;9.60;99.90
46416;DHT22;32620;51.704;7.822;2023-10-19T00:12:35;9.60;99.90
46416;DHT22;32620;51.704;7.822;2023-10-19T00:15:01;9.60;99.90
46416;DHT22;32620;51.704;7.822;2023-10-19T00:17:29;9.60;99.90
46416;DHT22;32620;51.704;7.822;2023-10-19T00:19:55;9.60;99.90
46416;DHT22;32620;51.704;7.822;2023-10-19T00:22:41;9.60;99.90
46416;DHT22;32620;51.704;7.822;2023-10-19T00:25:06;9.60;99.90
46416;DHT22;32620;51.704;7.822;2023-10-19T00:27:34;9.60;99.90
46416;DHT22;32620;51.704;7.822;2023-10-19T00:29:59;9.60;99.90
46416;DHT22;32620;51.704;7.822;2023-10-19T00:32:32;9.70;99.90
46416;DHT22;32620;51.704;7.822;2023-10-19T00:34:57;9.70;99.90
46416;DHT22;32620;51.704;7.822;2023-10-19T00:37:30;9.70;99.90
46416;DHT22;32620;51.704;7.822;2023-10-19T00:39:58;9.70;99.90
46416;DHT22;32620;51.704;7.822;2023-10-19T00:42:39;9.70;99.90
46416;DHT22;32620;51.704;7.822;2023-10-19T00:45:11;9.80;99.90
46416;DHT22;32620;51.704;7.822;2023-10-19T00:47:38;9.80;99.90
46416;DHT22;32620;51.704;7.822;2023-10-19T00:50:06;9.90;99.90
46416;DHT22;32620;51.704;7.822;2023-10-19T00:52:37;9.90;99.90
46416;DHT22;32620;51.704;7.822;2023-10-19T00:55:10;10.00;99.90
46416;DHT22;32620;51.704;7.822;2023-10-19T00:57:39;10.00;99.90
46416;DHT22;32620;51.704;7.822;2023-10-19T01:00:08;10.00;99.90
46416;DHT22;32620;51.704;7.822;2023-10-19T01:02:38;10.00;99.90
46416;DHT22;32620;51.704;7.822;2023-10-19T01:05:11;10.00;99.90
46416;DHT22;32620;51.704;7.822;2023-10-19T01:07:39;10.00;99.90
46416;DHT22;32620;51.704;7.822;2023-10-19T01:10:06;10.00;99.90
46416;DHT22;32620;51.704;7.822;2023-10-19T01:12:33;10.00;99.90
46416;DHT22;32620;51.704;7.822;2023-10-19T01:17:47;10.00;99.90
46416;DHT22;32620;51.704;7.822;2023-10-19T01:20:20;10.10;99.90
46416;DHT22;32620;51.704;7.822;2023-10-19T01:23:04;10.10;99.90
46416;DHT22;32620;51.704;7.822;2023-10-19T01:25:53;10.10;99.90
46416;DHT22;32620;51.704;7.822;2023-10-19T01:28:33;10.10;99.90
46416;DHT22;32620;51.704;7.822;2023-10-19T01:33:42;10.20;99.90
46416;DHT22;32620;51.704;7.822;2023-10-19T01:36:10;10.20;99.90
46416;DHT22;32620;51.704;7.822;2023-10-19T01:38:35;10.20;99.90
46416;DHT22;32620;51.704;7.822;2023-10-19T01:41:02;10.20;99.90
46416;DHT22;32620;51.704;7.822;2023-10-19T01:43:34;10.20;99.90
46416;DHT22;32620;51.704;7.822;2023-10-19T01:46:00;10.30;99.90
46416;DHT22;32620;51.704;7.822;2023-10-19T01:48:30;10.30;99.90
46416;DHT22;32620;51.704;7.822;2023-10-19T01:51:00;10.30;99.90
46416;DHT22;32620;51.704;7.822;2023-10-19T02:00:17;10.40;99.90
46416;DHT22;32620;51.704;7.822;2023-10-19T02:02:48;10.40;99.90
46416;DHT22;32620;51.704;7.822;2023-10-19T02:05:13;10.40;99.90
46416;DHT22;32620;51.704;7.822;2023-10-19T02:07:41;10.40;99.90
46416;DHT22;32620;51.704;7.822;2023-10-19T02:10:06;10.40;99.90
46416;DHT22;32620;51.704;7.822;2023-10-19T02:12:35;10.50;99.90
46416;DHT22;32620;51.704;7.822;2023-10-19T02:15:01;10.50;99.90
46416;DHT22;32620;51.704;7.822;2023-10-19T02:17:29;10.50;99.90
46416;DHT22;32620;51.704;7.822;2023-10-19T02:19:56;10.50;99.90
46416;DHT22;32620;51.704;7.822;2023-10-19T02:22:21;10.50;99.90
46416;DHT22;32620;51.704;7.822;2023-10-19T02:24:47;10.60;99.90
46416;DHT22;32620;51.704;7.822;2023-10-19T02:27:12;10.60;99.90
46416;DHT22;32620;51.704;7.822;2023-10-19T02:29:38;10.60;99.90
46416;DHT22;32620;51.704;7.822;2023-10-19T02:32:04;10.70;99.90
46416;DHT22;32620;51.704;7.822;2023-10-19T02:34:31;10.70;99.90
46416;DHT22;32620;51.704;7.822;2023-10-19T02:36:56;10.70;99.90
46416;DHT22;32620;51.704;7.822;2023-10-19T02:39:22;10.70;99.90
46416;DHT22;32620;51.704;7.822;2023-10-19T02:41:53;10.70;99.90
46416;DHT22;32620;51.704;7.822;2023-10-19T02:44:20;10.70;99.90
46416;DHT22;32620;51.704;7.822;2023-10-19T02:46:49;10.70;99.90
46416;DHT22;32620;51.704;7.822;2023-10-19T02:49:16;10.80;99.90
46416;DHT22;32620;51.704;7.822;2023-10-19T02:51:46;10.80;99.90
46416;DHT22;32620;51.704;7.822;2023-10-19T02:54:14;10.80;99.90
46416;DHT22;32620;51.704;7.822;2023-10-19T02:56:58;10.80;99.90
46416;DHT22;32620;51.704;7.822;2023-10-19T02:59:25;10.80;99.90
46416;DHT22;32620;51.704;7.822;2023-10-19T03:01:52;10.90;99.90
46416;DHT22;32620;51.704;7.822;2023-10-19T03:04:20;10.90;99.90
46416;DHT22;32620;51.704;7.822;2023-10-19T03:06:45;10.90;99.90
46416;DHT22;32620;51.704;7.822;2023-10-19T03:09:11;10.90;99.90
46416;DHT22;32620;51.704;7.822;2023-10-19T03:12:03;10.90;99.90
46416;DHT22;32620;51.704;7.822;2023-10-19T03:14:30;11.00;99.90
46416;DHT22;32620;51.704;7.822;2023-10-19T03:16:57;10.90;99.90
46416;DHT22;32620;51.704;7.822;2023-10-19T03:19:23;11.00;99.90
46416;DHT22;32620;51.704;7.822;2023-10-19T03:21:50;11.00;99.90
46416;DHT22;32620;51.704;7.822;2023-10-19T03:24:17;11.00;99.90
46416;DHT22;32620;51.704;7.822;2023-10-19T03:27:04;11.00;99.90
46416;DHT22;32620;51.704;7.822;2023-10-19T03:29:52;11.00;99.90
46416;DHT22;32620;51.704;7.822;2023-10-19T03:32:22;11.10;99.90
46416;DHT22;32620;51.704;7.822;2023-10-19T03:34:53;11.10;99.90
46416;DHT22;32620;51.704;7.822;2023-10-19T03:37:22;11.10;99.90
46416;DHT22;32620;51.704;7.822;2023-10-19T03:39:48;11.10;99.90
46416;DHT22;32620;51.704;7.822;2023-10-19T03:42:14;11.10;99.90
46416;DHT22;32620;51.704;7.822;2023-10-19T03:44:40;11.10;99.90
46416;DHT22;32620;51.704;7.822;2023-10-19T03:47:25;11.20;99.90
46416;DHT22;32620;51.704;7.822;2023-10-19T03:49:52;11.20;99.90
46416;DHT22;32620;51.704;7.822;2023-10-19T03:52:18;11.20;99.90
46416;DHT22;32620;51.704;7.822;2023-10-19T03:54:56;11.20;99.90
46416;DHT22;32620;51.704;7.822;2023-10-19T03:57:23;11.20;99.90
46416;DHT22;32620;51.704;7.822;2023-10-19T03:59:49;11.30;99.90
46416;DHT22;32620;51.704;7.822;2023-10-19T04:02:16;11.30;99.90
46416;DHT22;32620;51.704;7.822;2023-10-19T04:04:43;11.40;99.90
46416;DHT22;32620;51.704;7.822;2023-10-19T04:07:10;11.30;99.90
46416;DHT22;32620;51.704;7.822;2023-10-19T04:09:45;11.40;99.90
46416;DHT22;32620;51.704;7.822;2023-10-19T04:12:24;11.40;99.90
46416;DHT22;32620;51.704;7.822;2023-10-19T04:14:50;11.40;99.90
46416;DHT22;32620;51.704;7.822;2023-10-19T04:17:15;11.40;99.90
46416;DHT22;32620;51.704;7.822;2023-10-19T04:19:41;11.40;99.90
46416;DHT22;32620;51.704;7.822;2023-10-19T04:22:07;11.50;99.90
46416;DHT22;32620;51.704;7.822;2023-10-19T04:24:36;11.50;99.90
46416;DHT22;32620;51.704;7.822;2023-10-19T04:27:02;11.50;99.90
46416;DHT22;32620;51.704;7.822;2023-10-19T04:29:27;11.50;99.90
46416;DHT22;32620;51.704;7.822;2023-10-19T04:31:53;11.50;99.90
46416;DHT22;32620;51.704;7.822;2023-10-19T04:34:20;11.50;99.90
46416;DHT22;32620;51.704;7.822;2023-10-19T04:36:48;11.50;99.90
46416;DHT22;32620;51.704;7.822;2023-10-19T04:39:13;11.50;99.90
46416;DHT22;32620;51.704;7.822;2023-10-19T04:41:40;11.50;99.90
46416;DHT22;32620;51.704;7.822;2023-10-19T04:44:06;11.50;99.90
46416;DHT22;32620;51.704;7.822;2023-10-19T04:46:34;11.60;99.90
46416;DHT22;32620;51.704;7.822;2023-10-19T04:49:00;11.60;99.90
46416;DHT22;32620;51.704;7.822;2023-10-19T04:51:25;11.60;99.90
46416;DHT22;32620;51.704;7.822;2023-10-19T04:53:51;11.60;99.90
46416;DHT22;32620;51.704;7.822;2023-10-19T04:56:16;11.60;99.90
46416;DHT22;32620;51.704;7.822;2023-10-19T04:58:42;11.70;99.90
46416;DHT22;32620;51.704;7.822;2023-10-19T05:01:07;11.70;99.90
46416;DHT22;32620;51.704;7.822;2023-10-19T05:03:33;11.70;99.90
46416;DHT22;32620;51.704;7.822;2023-10-19T05:05:59;11.70;99.90
46416;DHT22;32620;51.704;7.822;2023-10-19T05:08:26;11.70;99.90
46416;DHT22;32620;51.704;7.822;2023-10-19T05:10:54;11.70;99.90
46416;DHT22;32620;51.704;7.822;2023-10-19T05:13:22;11.80;99.90
46416;DHT22;32620;51.704;7.822;2023-10-19T05:15:48;11.80;99.90
46416;DHT22;32620;51.704;7.822;2023-10-19T05:18:13;11.80;99.90
46416;DHT22;32620;51.704;7.822;2023-10-19T05:20:39;11.80;99.90
46416;DHT22;32620;51.704;7.822;2023-10-19T05:23:06;11.80;99.90
46416;DHT22;32620;51.704;7.822;2023-10-19T05:25:33;11.80;99.90
46416;DHT22;32620;51.704;7.822;2023-10-19T05:27:59;11.90;99.90
46416;DHT22;32620;51.704;7.822;2023-10-19T05:30:26;11.90;99.90
46416;DHT22;32620;51.704;7.822;2023-10-19T05:32:51;11.90;99.90
46416;DHT22;32620;51.704;7.822;2023-10-19T05:35:17;11.90;99.90
46416;DHT22;32620;51.704;7.822;2023-10-19T05:37:49;11.90;99.90
46416;DHT22;32620;51.704;7.822;2023-10-19T05:40:15;11.90;99.90
46416;DHT22;32620;51.704;7.822;2023-10-19T05:42:41;11.90;99.90
46416;DHT22;32620;51.704;7.822;2023-10-19T05:45:07;11.90;99.90
46416;DHT22;32620;51.704;7.822;2023-10-19T05:47:32;11.90;99.90
46416;DHT22;32620;51.704;7.822;2023-10-19T05:49:58;11.90;99.90
46416;DHT22;32620;51.704;7.822;2023-10-19T05:52:24;11.90;99.90
46416;DHT22;32620;51.704;7.822;2023-10-19T05:54:49;12.00;99.90
46416;DHT22;32620;51.704;7.822;2023-10-19T05:57:15;12.00;99.90
46416;DHT22;32620;51.704;7.822;2023-10-19T05:59:40;12.10;99.90
46416;DHT22;32620;51.704;7.822;2023-10-19T06:02:06;12.10;99.90
46416;DHT22;32620;51.704;7.822;2023-10-19T06:04:33;12.10;99.90
46416;DHT22;32620;51.704;7.822;2023-10-19T06:06:58;12.10;99.90
46416;DHT22;32620;51.704;7.822;2023-10-19T06:09:24;12.20;99.90
46416;DHT22;32620;51.704;7.822;2023-10-19T06:11:55;12.20;99.90
46416;DHT22;32620;51.704;7.822;2023-10-19T06:14:21;12.20;99.90
46416;DHT22;32620;51.704;7.822;2023-10-19T06:16:46;12.20;99.90
46416;DHT22;32620;51.704;7.822;2023-10-19T06:19:12;12.30;99.90
46416;DHT22;32620;51.704;7.822;2023-10-19T06:21:37;12.30;99.90
46416;DHT22;32620;51.704;7.822;2023-10-19T06:24:03;12.40;99.90
46416;DHT22;32620;51.704;7.822;2023-10-19T06:26:29;12.40;99.90
46416;DHT22;32620;51.704;7.822;2023-10-19T06:28:54;12.40;99.90
46416;DHT22;32620;51.704;7.822;2023-10-19T06:31:29;12.50;99.90
46416;DHT22;32620;51.704;7.822;2023-10-19T06:33:54;12.50;99.90
46416;DHT22;32620;51.704;7.822;2023-10-19T06:36:20;12.60;99.90
46416;DHT22;32620;51.704;7.822;2023-10-19T06:38:45;12.70;99.90
46416;DHT22;32620;51.704;7.822;2023-10-19T06:41:12;12.80;99.90
46416;DHT22;32620;51.704;7.822;2023-10-19T06:43:39;12.90;99.90
46416;DHT22;32620;51.704;7.822;2023-10-19T06:46:05;12.90;99.90
46416;DHT22;32620;51.704;7.822;2023-10-19T06:48:31;12.90;99.90
46416;DHT22;32620;51.704;7.822;2023-10-19T06:50:57;13.00;99.90
46416;DHT22;32620;51.704;7.822;2023-10-19T06:53:23;13.00;99.90
46416;DHT22;32620;51.704;7.822;2023-10-19T06:55:48;13.00;99.90
46416;DHT22;32620;51.704;7.822;2023-10-19T06:58:14;12.90;99.90
46416;DHT22;32620;51.704;7.822;2023-10-19T07:00:40;13.00;99.90
46416;DHT22;32620;51.704;7.822;2023-10-19T07:03:10;13.00;99.90
46416;DHT22;32620;51.704;7.822;2023-10-19T07:05:35;13.10;99.90
46416;DHT22;32620;51.704;7.822;2023-10-19T07:08:01;13.10;99.90
46416;DHT22;32620;51.704;7.822;2023-10-19T07:10:28;13.10;99.90
46416;DHT22;32620;51.704;7.822;2023-10-19T07:12:55;13.10;99.90
46416;DHT22;32620;51.704;7.822;2023-10-19T07:15:22;13.20;99.90
46416;DHT22;32620;51.704;7.822;2023-10-19T07:17:49;13.20;99.90
46416;DHT22;32620;51.704;7.822;2023-10-19T07:20:18;13.20;99.90
46416;DHT22;32620;51.704;7.822;2023-10-19T07:23:04;13.20;99.90
46416;DHT22;32620;51.704;7.822;2023-10-19T07:25:48;13.30;99.90
46416;DHT22;32620;51.704;7.822;2023-10-19T07:28:15;13.30;99.90
46416;DHT22;32620;51.704;7.822;2023-10-19T07:30:42;13.30;99.90
46416;DHT22;32620;51.704;7.822;2023-10-19T07:33:09;13.40;99.90
46416;DHT22;32620;51.704;7.822;2023-10-19T07:35:36;13.40;99.90
46416;DHT22;32620;51.704;7.822;2023-10-19T07:38:04;13.50;99.90
46416;DHT22;32620;51.704;7.822;2023-10-19T07:40:33;13.60;99.90
46416;DHT22;32620;51.704;7.822;2023-10-19T07:42:58;13.70;99.90
46416;DHT22;32620;51.704;7.822;2023-10-19T07:45:24;13.80;99.90
46416;DHT22;32620;51.704;7.822;2023-10-19T07:47:50;13.90;99.90
46416;DHT22;32620;51.704;7.822;2023-10-19T07:50:16;14.00;99.90
46416;DHT22;32620;51.704;7.822;2023-10-19T07:52:43;14.10;99.90
46416;DHT22;32620;51.704;7.822;2023-10-19T07:55:10;14.20;99.90
46416;DHT22;32620;51.704;7.822;2023-10-19T07:57:35;14.30;99.90
46416;DHT22;32620;51.704;7.822;2023-10-19T08:00:02;14.40;99.90
46416;DHT22;32620;51.704;7.822;2023-10-19T08:02:29;14.40;99.90
46416;DHT22;32620;51.704;7.822;2023-10-19T08:04:55;14.40;99.90
46416;DHT22;32620;51.704;7.822;2023-10-19T08:07:21;14.40;99.90
46416;DHT22;32620;51.704;7.822;2023-10-19T08:09:47;14.40;99.90
46416;DHT22;32620;51.704;7.822;2023-10-19T08:12:13;14.40;99.90
46416;DHT22;32620;51.704;7.822;2023-10-19T08:14:39;14.30;99.90
46416;DHT22;32620;51.704;7.822;2023-10-19T08:17:05;14.30;99.90
46416;DHT22;32620;51.704;7.822;2023-10-19T08:19:31;14.20;99.90
46416;DHT22;32620;51.704;7.822;2023-10-19T08:21:57;14.30;99.90
46416;DHT22;32620;51.704;7.822;2023-10-19T08:24:23;14.20;99.90
46416;DHT22;32620;51.704;7.822;2023-10-19T08:26:49;14.20;99.90
46416;DHT22;32620;51.704;7.822;2023-10-19T08:29:16;14.30;99.90
46416;DHT22;32620;51.704;7.822;2023-10-19T08:31:43;14.30;99.90
46416;DHT22;32620;51.704;7.822;2023-10-19T08:34:10;14.40;99.90
46416;DHT22;32620;51.704;7.822;2023-10-19T08:36:37;14.40;99.90
46416;DHT22;32620;51.704;7.822;2023-10-19T08:39:05;14.60;99.90
46416;DHT22;32620;51.704;7.822;2023-10-19T08:41:34;14.60;99.90
46416;DHT22;32620;51.704;7.822;2023-10-19T08:44:01;14.60;99.90
46416;DHT22;32620;51.704;7.822;2023-10-19T08:46:27;14.60;99.90
46416;DHT22;32620;51.704;7.822;2023-10-19T08:48:55;14.50;99.90
46416;DHT22;32620;51.704;7.822;2023-10-19T08:51:22;14.50;99.90
46416;DHT22;32620;51.704;7.822;2023-10-19T08:53:52;14.60;99.90
46416;DHT22;32620;51.704;7.822;2023-10-19T08:56:19;14.50;99.90
46416;DHT22;32620;51.704;7.822;2023-10-19T08:58:44;14.50;99.90
46416;DHT22;32620;51.704;7.822;2023-10-19T09:01:11;14.50;99.90
46416;DHT22;32620;51.704;7.822;2023-10-19T09:03:37;14.60;99.90
46416;DHT22;32620;51.704;7.822;2023-10-19T09:06:04;14.60;99.90
46416;DHT22;32620;51.704;7.822;2023-10-19T09:08:31;14.70;99.90
46416;DHT22;32620;51.704;7.822;2023-10-19T09:11:07;14.80;99.90
46416;DHT22;32620;51.704;7.822;2023-10-19T09:13:50;15.00;99.90
46416;DHT22;32620;51.704;7.822;2023-10-19T09:16:18;15.00;99.90
46416;DHT22;32620;51.704;7.822;2023-10-19T09:18:46;15.20;99.90
46416;DHT22;32620;51.704;7.822;2023-10-19T09:21:16;15.40;99.90
46416;DHT22;32620;51.704;7.822;2023-10-19T09:23:58;15.50;99.90
46416;DHT22;32620;51.704;7.822;2023-10-19T09:26:24;15.40;99.90
46416;DHT22;32620;51.704;7.822;2023-10-19T09:28:51;15.30;99.90
46416;DHT22;32620;51.704;7.822;2023-10-19T09:31:17;15.20;99.90
46416;DHT22;32620;51.704;7.822;2023-10-19T09:33:45;15.30;99.90
46416;DHT22;32620;51.704;7.822;2023-10-19T09:36:12;15.20;99.90
46416;DHT22;32620;51.704;7.822;2023-10-19T09:38:42;15.20;99.90
46416;DHT22;32620;51.704;7.822;2023-10-19T09:41:11;15.30;99.90
46416;DHT22;32620;51.704;7.822;2023-10-19T09:43:44;15.40;99.90
46416;DHT22;32620;51.704;7.822;2023-10-19T09:46:12;15.60;99.90
46416;DHT22;32620;51.704;7.822;2023-10-19T09:48:40;15.70;99.90
46416;DHT22;32620;51.704;7.822;2023-10-19T09:51:08;15.70;99.90
46416;DHT22;32620;51.704;7.822;2023-10-19T09:53:34;15.80;99.90
46416;DHT22;32620;51.704;7.822;2023-10-19T09:56:02;15.60;99.90
46416;DHT22;32620;51.704;7.822;2023-10-19T09:58:35;15.70;99.90
46416;DHT22;32620;51.704;7.822;2023-10-19T10:01:03;15.70;99.90
46416;DHT22;32620;51.704;7.822;2023-10-19T10:03:49;15.70;99.90
46416;DHT22;32620;51.704;7.822;2023-10-19T10:06:16;15.80;99.90
46416;DHT22;32620;51.704;7.822;2023-10-19T10:08:44;15.80;99.90
46416;DHT22;32620;51.704;7.822;2023-10-19T10:11:27;15.80;99.90
46416;DHT22;32620;51.704;7.822;2023-10-19T10:13:54;15.80;99.90
46416;DHT22;32620;51.704;7.822;2023-10-19T10:16:26;15.90;99.90
46416;DHT22;32620;51.704;7.822;2023-10-19T10:18:55;15.90;99.90
46416;DHT22;32620;51.704;7.822;2023-10-19T10:21:22;15.90;99.90
46416;DHT22;32620;51.704;7.822;2023-10-19T10:23:57;15.90;99.90
46416;DHT22;32620;51.704;7.822;2023-10-19T10:26:25;16.00;99.90
46416;DHT22;32620;51.704;7.822;2023-10-19T10:29:12;16.10;99.90
46416;DHT22;32620;51.704;7.822;2023-10-19T10:31:47;16.20;99.90
46416;DHT22;32620;51.704;7.822;2023-10-19T10:37:11;16.20;99.90
46416;DHT22;32620;51.704;7.822;2023-10-19T10:39:39;16.40;99.90
46416;DHT22;32620;51.704;7.822;2023-10-19T10:42:08;16.50;99.90
46416;DHT22;32620;51.704;7.822;2023-10-19T10:44:39;16.60;99.90
46416;DHT22;32620;51.704;7.822;2023-10-19T10:47:09;16.80;99.90
46416;DHT22;32620;51.704;7.822;2023-10-19T10:49:49;16.90;99.90
46416;DHT22;32620;51.704;7.822;2023-10-19T10:52:35;17.00;99.90
46416;DHT22;32620;51.704;7.822;2023-10-19T10:55:10;17.00;99.90
46416;DHT22;32620;51.704;7.822;2023-10-19T10:57:37;16.90;99.90
46416;DHT22;32620;51.704;7.822;2023-10-19T11:00:06;16.80;99.90
46416;DHT22;32620;51.704;7.822;2023-10-19T11:02:34;16.80;99.90
46416;DHT22;32620;51.704;7.822;2023-10-19T11:05:00;16.90;99.90
46416;DHT22;32620;51.704;7.822;2023-10-19T11:07:26;16.90;99.90
46416;DHT22;32620;51.704;7.822;2023-10-19T11:09:52;16.90;99.90
46416;DHT22;32620;51.704;7.822;2023-10-19T11:12:17;17.10;99.90
46416;DHT22;32620;51.704;7.822;2023-10-19T11:14:53;17.20;99.90
46416;DHT22;32620;51.704;7.822;2023-10-19T11:17:19;17.40;99.90
46416;DHT22;32620;51.704;7.822;2023-10-19T11:19:44;17.40;99.90
46416;DHT22;32620;51.704;7.822;2023-10-19T11:22:10;17.50;99.90
46416;DHT22;32620;51.704;7.822;2023-10-19T11:24:36;17.60;99.90
46416;DHT22;32620;51.704;7.822;2023-10-19T11:27:06;17.40;99.90
46416;DHT22;32620;51.704;7.822;2023-10-19T11:29:33;17.30;99.90
46416;DHT22;32620;51.704;7.822;2023-10-19T11:32:00;17.30;99.90
46416;DHT22;32620;51.704;7.822;2023-10-19T11:34:26;17.20;99.90
46416;DHT22;32620;51.704;7.822;2023-10-19T11:36:53;17.20;99.90
46416;DHT22;32620;51.704;7.822;2023-10-19T11:39:25;17.40;99.90
46416;DHT22;32620;51.704;7.822;2023-10-19T11:41:50;17.70;99.90
46416;DHT22;32620;51.704;7.822;2023-10-19T11:44:16;17.80;99.90
46416;DHT22;32620;51.704;7.822;2023-10-19T11:46:41;18.00;99.90
46416;DHT22;32620;51.704;7.822;2023-10-19T11:49:07;18.40;99.90
46416;DHT22;32620;51.704;7.822;2023-10-19T11:51:34;18.60;99.90
46416;DHT22;32620;51.704;7.822;2023-10-19T11:54:00;18.80;99.90
46416;DHT22;32620;51.704;7.822;2023-10-19T11:56:26;18.80;99.90
46416;DHT22;32620;51.704;7.822;2023-10-19T11:58:51;18.80;99.90
46416;DHT22;32620;51.704;7.822;2023-10-19T12:01:18;18.80;99.90
46416;DHT22;32620;51.704;7.822;2023-10-19T12:03:43;18.80;99.90
46416;DHT22;32620;51.704;7.822;2023-10-19T12:06:11;18.80;99.90
46416;DHT22;32620;51.704;7.822;2023-10-19T12:08:38;18.80;99.90
46416;DHT22;32620;51.704;7.822;2023-10-19T12:11:05;18.60;97.10
46416;DHT22;32620;51.704;7.822;2023-10-19T12:13:41;18.90;99.90
46416;DHT22;32620;51.704;7.822;2023-10-19T12:16:07;19.10;92.40
46416;DHT22;32620;51.704;7.822;2023-10-19T12:18:32;19.10;64.40
46416;DHT22;32620;51.704;7.822;2023-10-19T12:20:58;19.10;90.30
46416;DHT22;32620;51.704;7.822;2023-10-19T12:23:25;19.00;91.50
46416;DHT22;32620;51.704;7.822;2023-10-19T12:25:51;18.80;62.40
46416;DHT22;32620;51.704;7.822;2023-10-19T12:28:17;18.70;42.40
46416;DHT22;32620;51.704;7.822;2023-10-19T12:30:42;18.70;59.20
46416;DHT22;32620;51.704;7.822;2023-10-19T12:33:09;18.80;47.50
46416;DHT22;32620;51.704;7.822;2023-10-19T12:35:39;18.90;38.10
46416;DHT22;32620;51.704;7.822;2023-10-19T12:38:22;18.90;45.90
46416;DHT22;32620;51.704;7.822;2023-10-19T12:40:49;18.90;57.70
46416;DHT22;32620;51.704;7.822;2023-10-19T12:43:17;18.90;64.50
46416;DHT22;32620;51.704;7.822;2023-10-19T12:45:44;19.00;53.70
46416;DHT22;32620;51.704;7.822;2023-10-19T12:48:16;19.20;21.20
46416;DHT22;32620;51.704;7.822;2023-10-19T12:50:42;19.40;5.20
46416;DHT22;32620;51.704;7.822;2023-10-19T12:53:08;19.50;1.00
46416;DHT22;32620;51.704;7.822;2023-10-19T12:55:35;19.40;1.00
46416;DHT22;32620;51.704;7.822;2023-10-19T12:58:02;19.30;1.00
46416;DHT22;32620;51.704;7.822;2023-10-19T13:00:36;19.30;1.00
46416;DHT22;32620;51.704;7.822;2023-10-19T13:03:07;19.40;1.00
46416;DHT22;32620;51.704;7.822;2023-10-19T13:05:35;19.30;1.00
46416;DHT22;32620;51.704;7.822;2023-10-19T13:08:01;19.40;1.00
46416;DHT22;32620;51.704;7.822;2023-10-19T13:10:29;19.50;1.00
46416;DHT22;32620;51.704;7.822;2023-10-19T13:12:59;19.50;1.00
46416;DHT22;32620;51.704;7.822;2023-10-19T13:15:31;19.40;1.00
46416;DHT22;32620;51.704;7.822;2023-10-19T13:17:57;19.50;1.00
46416;DHT22;32620;51.704;7.822;2023-10-19T13:20:24;19.40;1.00
46416;DHT22;32620;51.704;7.822;2023-10-19T13:22:51;19.30;1.00
46416;DHT22;32620;51.704;7.822;2023-10-19T13:25:17;19.30;1.00
46416;DHT22;32620;51.704;7.822;2023-10-19T13:27:44;19.30;1.00
46416;DHT22;32620;51.704;7.822;2023-10-19T13:30:11;19.20;1.00
46416;DHT22;32620;51.704;7.822;2023-10-19T13:32:37;19.20;1.00
46416;DHT22;32620;51.704;7.822;2023-10-19T13:35:04;19.10;1.00
46416;DHT22;32620;51.704;7.822;2023-10-19T13:37:30;19.10;1.00
46416;DHT22;32620;51.704;7.822;2023-10-19T13:39:56;19.10;1.00
46416;DHT22;32620;51.704;7.822;2023-10-19T13:42:22;19.00;7.60
46416;DHT22;32620;51.704;7.822;2023-10-19T13:44:47;19.00;1.00
46416;DHT22;32620;51.704;7.822;2023-10-19T13:47:13;19.10;2.30
46416;DHT22;32620;51.704;7.822;2023-10-19T13:49:39;19.00;1.00
46416;DHT22;32620;51.704;7.822;2023-10-19T13:52:04;18.90;3.60
46416;DHT22;32620;51.704;7.822;2023-10-19T13:54:30;18.90;10.20
46416;DHT22;32620;51.704;7.822;2023-10-19T13:56:56;18.80;2.00
46416;DHT22;32620;51.704;7.822;2023-10-19T13:59:21;18.60;14.60
46416;DHT22;32620;51.704;7.822;2023-10-19T14:01:49;18.50;16.70
46416;DHT22;32620;51.704;7.822;2023-10-19T14:04:15;18.50;17.90
46416;DHT22;32620;51.704;7.822;2023-10-19T14:06:41;18.50;28.00
46416;DHT22;32620;51.704;7.822;2023-10-19T14:09:08;18.60;49.40
46416;DHT22;32620;51.704;7.822;2023-10-19T14:11:38;18.60;35.00
46416;DHT22;32620;51.704;7.822;2023-10-19T14:14:03;18.60;19.60
46416;DHT22;32620;51.704;7.822;2023-10-19T14:16:30;18.60;22.40
46416;DHT22;32620;51.704;7.822;2023-10-19T14:18:56;18.60;25.50
46416;DHT22;32620;51.704;7.822;2023-10-19T14:21:22;18.60;35.80
46416;DHT22;32620;51.704;7.822;2023-10-19T14:23:52;18.40;11.80
46416;DHT22;32620;51.704;7.822;2023-10-19T14:26:18;18.40;28.20
46416;DHT22;32620;51.704;7.822;2023-10-19T14:28:44;18.40;29.70
46416;DHT22;32620;51.704;7.822;2023-10-19T14:31:10;18.40;38.20
46416;DHT22;32620;51.704;7.822;2023-10-19T14:33:36;18.30;44.30
46416;DHT22;32620;51.704;7.822;2023-10-19T14:36:03;18.20;29.80
46416;DHT22;32620;51.704;7.822;2023-10-19T14:38:29;18.20;32.00
46416;DHT22;32620;51.704;7.822;2023-10-19T14:40:55;18.20;32.60
46416;DHT22;32620;51.704;7.822;2023-10-19T14:43:20;18.10;34.40
46416;DHT22;32620;51.704;7.822;2023-10-19T14:45:46;18.10;58.00
46416;DHT22;32620;51.704;7.822;2023-10-19T14:48:12;18.00;41.10
46416;DHT22;32620;51.704;7.822;2023-10-19T14:50:38;17.90;59.90
46416;DHT22;32620;51.704;7.822;2023-10-19T14:53:03;17.80;60.70
46416;DHT22;32620;51.704;7.822;2023-10-19T14:55:29;17.80;72.80
46416;DHT22;32620;51.704;7.822;2023-10-19T14:57:55;17.70;77.00
46416;DHT22;32620;51.704;7.822;2023-10-19T15:00:22;17.70;84.00
46416;DHT22;32620;51.704;7.822;2023-10-19T15:02:59;17.70;93.00
46416;DHT22;32620;51.704;7.822;2023-10-19T15:05:27;17.70;99.10
46416;DHT22;32620;51.704;7.822;2023-10-19T15:07:54;17.80;97.90
46416;DHT22;32620;51.704;7.822;2023-10-19T15:10:23;17.80;99.30
46416;DHT22;32620;51.704;7.822;2023-10-19T15:12:49;17.90;99.90
46416;DHT22;32620;51.704;7.822;2023-10-19T15:15:15;17.90;99.90
46416;DHT22;32620;51.704;7.822;2023-10-19T15:17:42;17.80;99.90
46416;DHT22;32620;51.704;7.822;2023-10-19T15:20:10;17.80;99.90
46416;DHT22;32620;51.704;7.822;2023-10-19T15:22:38;17.70;99.90
46416;DHT22;32620;51.704;7.822;2023-10-19T15:25:05;17.60;99.90
46416;DHT22;32620;51.704;7.822;2023-10-19T15:27:33;17.50;99.90
46416;DHT22;32620;51.704;7.822;2023-10-19T15:29:59;17.40;99.90
46416;DHT22;32620;51.704;7.822;2023-10-19T15:32:24;17.30;99.90
46416;DHT22;32620;51.704;7.822;2023-10-19T15:34:50;17.30;99.90
46416;DHT22;32620;51.704;7.822;2023-10-19T15:37:17;17.20;99.90
46416;DHT22;32620;51.704;7.822;2023-10-19T15:39:42;17.20;99.90
46416;DHT22;32620;51.704;7.822;2023-10-19T15:42:09;17.10;99.90
46416;DHT22;32620;51.704;7.822;2023-10-19T15:44:37;17.00;99.90
46416;DHT22;32620;51.704;7.822;2023-10-19T15:47:02;16.90;99.90
46416;DHT22;32620;51.704;7.822;2023-10-19T15:49:35;16.90;99.90
46416;DHT22;32620;51.704;7.822;2023-10-19T15:52:01;16.80;99.90